Time;durP1;ratioP1;P1;durP2;ratioP2;P2;SDS_P1;SDS_P2;PMS_P1;PMS_P2;Temp;Humidity;BMP_temperature;BMP_pressure;BME280_temperature;BME280_humidity;BME280_pressure;Samples;Min_cycle;Max_cycle;Signal;HPM_P1;HPM_P2
2021/12/04 00:00:50;;;;;;;13.75;4.88;;;;;;;;;;5066583;28;20089;-51
2021/12/04 00:03:16;;;;;;;13.10;5.18;;;;;;;;;;5066280;28;20047;-51
2021/12/04 00:05:48;;;;;;;14.00;6.13;;;;;;;;;;5065679;28;20519;-49
2021/12/04 00:08:14;;;;;;;15.30;5.72;;;;;;;;;;5063106;28;20028;-50
2021/12/04 00:10:41;;;;;;;10.88;4.93;;;;;;;;;;5048161;28;20085;-49
2021/12/04 00:13:08;;;;;;;10.38;4.53;;;;;;;;;;5066059;28;20025;-50
2021/12/04 00:15:34;;;;;;;9.48;4.30;;;;;;;;;;5048796;28;20032;-50
2021/12/04 00:18:00;;;;;;;7.72;3.58;;;;;;;;;;5066648;28;20028;-49
2021/12/04 00:20:30;;;;;;;6.47;3.17;;;;;;;;;;5047838;28;20039;-49
2021/12/04 00:22:58;;;;;;;4.75;3.13;;;;;;;;;;5046675;28;20031;-46
2021/12/04 00:25:25;;;;;;;3.95;2.40;;;;;;;;;;5057226;28;20473;-48
2021/12/04 00:27:51;;;;;;;3.75;2.10;;;;;;;;;;5072636;28;20035;-51
2021/12/04 00:30:17;;;;;;;3.47;2.10;;;;;;;;;;5064406;28;20056;-46
2021/12/04 00:32:53;;;;;;;4.00;2.15;;;;;;;;;;5065895;28;20032;-49
2021/12/04 00:35:44;;;;;;;2.42;1.90;;;;;;;;;;5065127;28;20024;-47
2021/12/04 00:49:12;;;;;;;2.00;1.00;;;;;;;;;;5065894;28;20419;-51
2021/12/04 00:51:39;;;;;;;1.77;1.00;;;;;;;;;;5065233;28;20031;-51
2021/12/04 00:54:05;;;;;;;1.52;1.17;;;;;;;;;;5046301;28;20327;-49
2021/12/04 00:56:35;;;;;;;1.38;0.90;;;;;;;;;;5066287;28;20024;-48
2021/12/04 00:59:01;;;;;;;1.75;0.93;;;;;;;;;;5064859;28;20035;-50
2021/12/04 01:01:27;;;;;;;0.85;0.80;;;;;;;;;;5063645;28;20028;-51
2021/12/04 01:03:53;;;;;;;0.93;0.80;;;;;;;;;;5055127;28;20387;-49
2021/12/04 01:06:19;;;;;;;1.08;0.75;;;;;;;;;;5063716;28;20039;-48
2021/12/04 01:08:45;;;;;;;0.70;0.60;;;;;;;;;;5056290;28;20573;-49
2021/12/04 01:11:11;;;;;;;0.63;0.60;;;;;;;;;;5064591;28;20032;-51
2021/12/04 01:13:37;;;;;;;0.73;0.60;;;;;;;;;;5065048;28;20052;-48
2021/12/04 01:16:03;;;;;;;1.55;1.38;;;;;;;;;;5065595;28;20024;-52
2021/12/04 01:18:29;;;;;;;1.35;0.95;;;;;;;;;;5061822;28;20024;-51
2021/12/04 01:20:55;;;;;;;1.67;1.10;;;;;;;;;;5063993;28;20591;-49
2021/12/04 01:23:22;;;;;;;1.83;1.10;;;;;;;;;;5064820;28;20236;-49
2021/12/04 01:25:49;;;;;;;1.35;0.98;;;;;;;;;;5064448;28;20039;-48
2021/12/04 01:28:16;;;;;;;1.17;0.95;;;;;;;;;;5065176;28;20539;-48
2021/12/04 01:30:43;;;;;;;1.40;0.90;;;;;;;;;;5064051;28;20028;-50
2021/12/04 01:33:09;;;;;;;1.00;0.88;;;;;;;;;;5064667;28;20047;-48
2021/12/04 01:35:36;;;;;;;1.20;1.10;;;;;;;;;;5064854;28;20051;-49
2021/12/04 01:38:03;;;;;;;1.25;0.85;;;;;;;;;;5065859;28;20025;-51
2021/12/04 01:40:29;;;;;;;2.58;1.40;;;;;;;;;;5064030;28;20035;-50
2021/12/04 01:42:56;;;;;;;1.40;1.00;;;;;;;;;;5065148;28;20079;-52
2021/12/04 01:45:23;;;;;;;3.80;1.23;;;;;;;;;;5065092;28;20442;-49
2021/12/04 01:47:50;;;;;;;1.67;1.10;;;;;;;;;;5064293;28;20452;-50
2021/12/04 01:50:17;;;;;;;2.15;1.10;;;;;;;;;;5064525;28;20029;-49
2021/12/04 01:52:43;;;;;;;1.70;0.90;;;;;;;;;;5064303;28;20028;-49
2021/12/04 01:55:09;;;;;;;1.58;1.05;;;;;;;;;;5064451;28;20488;-49
2021/12/04 01:57:35;;;;;;;1.98;1.20;;;;;;;;;;5065072;28;20028;-50
2021/12/04 02:00:05;;;;;;;1.38;1.05;;;;;;;;;;5065686;28;20031;-49
2021/12/04 02:02:32;;;;;;;1.42;1.05;;;;;;;;;;5065395;28;20039;-47
2021/12/04 02:04:59;;;;;;;3.33;1.40;;;;;;;;;;5063925;28;20033;-48
2021/12/04 02:07:25;;;;;;;1.70;1.10;;;;;;;;;;5063826;28;20036;-48
2021/12/04 02:09:51;;;;;;;1.40;0.98;;;;;;;;;;5064513;28;20320;-48
2021/12/04 02:12:17;;;;;;;1.52;1.05;;;;;;;;;;5062913;28;20403;-49
2021/12/04 02:14:43;;;;;;;2.78;1.23;;;;;;;;;;5064866;28;20021;-49
2021/12/04 02:17:10;;;;;;;1.30;1.02;;;;;;;;;;5045176;28;20067;-47
2021/12/04 02:19:36;;;;;;;1.65;0.98;;;;;;;;;;5051029;28;20086;-49
2021/12/04 02:22:02;;;;;;;2.33;1.40;;;;;;;;;;5064265;28;20025;-50
2021/12/04 02:24:29;;;;;;;2.88;1.35;;;;;;;;;;5064283;28;20404;-48
2021/12/04 02:26:55;;;;;;;1.85;1.40;;;;;;;;;;5064712;28;20029;-50
2021/12/04 02:29:21;;;;;;;3.63;1.30;;;;;;;;;;5063501;28;20036;-52
2021/12/04 02:31:51;;;;;;;2.13;1.10;;;;;;;;;;5046422;28;20027;-49
2021/12/04 02:34:25;;;;;;;2.22;1.20;;;;;;;;;;5064210;28;20082;-49
2021/12/04 02:36:53;;;;;;;1.65;1.10;;;;;;;;;;5064735;28;20078;-48
2021/12/04 02:39:30;;;;;;;2.83;1.58;;;;;;;;;;5064239;28;20054;-51
2021/12/04 02:41:57;;;;;;;1.65;1.20;;;;;;;;;;5064238;28;20060;-49
2021/12/04 02:44:24;;;;;;;1.70;1.13;;;;;;;;;;5062201;28;20021;-48
2021/12/04 02:46:50;;;;;;;2.22;1.35;;;;;;;;;;5064575;28;20031;-48
2021/12/04 02:49:16;;;;;;;2.55;1.33;;;;;;;;;;5063935;28;20024;-51
2021/12/04 02:51:43;;;;;;;2.65;1.23;;;;;;;;;;5063517;28;20407;-47
2021/12/04 02:54:11;;;;;;;1.80;1.30;;;;;;;;;;5063875;28;20033;-51
2021/12/04 02:56:39;;;;;;;2.17;1.25;;;;;;;;;;5064329;28;20017;-49
2021/12/04 02:59:06;;;;;;;1.63;1.02;;;;;;;;;;5063292;28;20028;-49
2021/12/04 03:01:36;;;;;;;1.55;1.20;;;;;;;;;;5064825;28;20396;-50
2021/12/04 03:04:06;;;;;;;1.77;1.05;;;;;;;;;;5063552;28;20075;-50
2021/12/04 03:06:37;;;;;;;1.90;1.20;;;;;;;;;;5064260;28;20458;-48
2021/12/04 03:09:04;;;;;;;1.25;0.95;;;;;;;;;;5064722;28;20485;-51
2021/12/04 03:11:32;;;;;;;1.25;0.90;;;;;;;;;;5064045;28;20020;-48
2021/12/04 03:13:59;;;;;;;1.17;0.73;;;;;;;;;;5063999;28;20036;-50
2021/12/04 03:16:26;;;;;;;1.00;0.80;;;;;;;;;;5063816;28;20112;-51
2021/12/04 03:18:52;;;;;;;1.40;0.90;;;;;;;;;;5062838;28;20515;-51
2021/12/04 03:21:18;;;;;;;1.52;1.10;;;;;;;;;;5063802;28;20459;-48
2021/12/04 03:23:59;;;;;;;1.85;0.70;;;;;;;;;;5067516;28;20415;-49
2021/12/04 03:26:26;;;;;;;1.95;1.08;;;;;;;;;;5067346;28;20565;-48
2021/12/04 03:28:53;;;;;;;1.67;1.10;;;;;;;;;;5066617;28;20042;-48
2021/12/04 03:42:04;;;;;;;2.28;0.90;;;;;;;;;;5067633;28;20052;-48
2021/12/04 03:44:31;;;;;;;1.67;0.90;;;;;;;;;;5066611;28;20119;-48
2021/12/04 03:46:58;;;;;;;1.65;0.90;;;;;;;;;;5067081;28;20089;-49
2021/12/04 03:49:24;;;;;;;1.17;0.90;;;;;;;;;;5066400;28;20028;-48
2021/12/04 03:51:50;;;;;;;1.42;0.80;;;;;;;;;;5066002;28;20403;-52
2021/12/04 03:54:17;;;;;;;2.13;0.73;;;;;;;;;;5066558;28;20487;-49
2021/12/04 03:56:44;;;;;;;1.50;0.60;;;;;;;;;;5066966;28;20106;-49
2021/12/04 03:59:11;;;;;;;1.10;0.65;;;;;;;;;;5066246;28;20020;-48
2021/12/04 04:01:37;;;;;;;0.90;0.80;;;;;;;;;;5067477;28;20021;-49
2021/12/04 04:04:03;;;;;;;1.63;0.90;;;;;;;;;;5066647;28;20038;-51
2021/12/04 04:06:30;;;;;;;2.00;0.90;;;;;;;;;;5065969;28;20509;-48
2021/12/04 04:08:56;;;;;;;0.82;0.70;;;;;;;;;;5066730;28;20470;-50
2021/12/04 04:11:22;;;;;;;0.65;0.65;;;;;;;;;;5065934;28;20527;-47
2021/12/04 04:13:48;;;;;;;0.85;0.70;;;;;;;;;;5066351;28;20048;-48
2021/12/04 04:16:14;;;;;;;1.17;0.85;;;;;;;;;;5066251;28;20025;-47
2021/12/04 04:18:40;;;;;;;1.85;0.80;;;;;;;;;;5066324;28;20094;-51
2021/12/04 04:21:07;;;;;;;0.70;0.70;;;;;;;;;;5066789;28;20024;-50
2021/12/04 04:23:33;;;;;;;2.03;0.82;;;;;;;;;;5065342;28;20027;-50
2021/12/04 04:26:01;;;;;;;1.38;0.88;;;;;;;;;;5046508;28;20092;-47
2021/12/04 04:28:28;;;;;;;2.92;1.02;;;;;;;;;;5046022;28;20116;-49
2021/12/04 04:30:54;;;;;;;1.10;1.00;;;;;;;;;;5054608;28;20032;-48
2021/12/04 04:33:20;;;;;;;2.15;0.82;;;;;;;;;;5065566;28;20120;-49
2021/12/04 04:35:59;;;;;;;1.30;0.90;;;;;;;;;;5066245;28;20050;-48
2021/12/04 04:38:38;;;;;;;1.05;0.77;;;;;;;;;;5065852;28;20055;-48
2021/12/04 05:13:21;;;;;;;1.42;1.00;;;;;;;;;;5065116;28;20178;-51
2021/12/04 05:20:53;;;;;;;1.08;0.70;;;;;;;;;;5045056;28;20060;-49
2021/12/04 05:23:20;;;;;;;0.80;0.80;;;;;;;;;;5045213;28;20021;-47
2021/12/04 05:25:46;;;;;;;1.48;0.85;;;;;;;;;;5045181;28;20037;-50
2021/12/04 05:28:14;;;;;;;2.78;0.80;;;;;;;;;;5044791;28;20536;-50
2021/12/04 05:30:40;;;;;;;2.05;1.30;;;;;;;;;;5045792;28;20037;-47
2021/12/04 05:33:07;;;;;;;0.90;0.80;;;;;;;;;;5064526;28;20025;-51
2021/12/04 05:35:33;;;;;;;2.42;1.02;;;;;;;;;;5063926;28;20155;-48
2021/12/04 05:37:59;;;;;;;1.30;0.77;;;;;;;;;;5065030;28;20550;-50
2021/12/04 05:40:25;;;;;;;2.00;1.08;;;;;;;;;;5064311;28;20106;-50
2021/12/04 05:42:58;;;;;;;1.13;0.80;;;;;;;;;;5065454;28;20352;-50
2021/12/04 05:45:25;;;;;;;1.20;0.82;;;;;;;;;;5063765;28;20032;-49
2021/12/04 05:48:05;;;;;;;0.80;0.70;;;;;;;;;;5065193;28;20020;-49
2021/12/04 05:55:58;;;;;;;0.75;0.65;;;;;;;;;;5064328;28;20032;-50
2021/12/04 05:58:28;;;;;;;1.45;0.90;;;;;;;;;;5064365;28;20049;-49
2021/12/04 06:00:56;;;;;;;1.17;0.80;;;;;;;;;;5064835;28;20028;-48
2021/12/04 06:03:23;;;;;;;1.25;0.75;;;;;;;;;;5046246;28;20067;-49
2021/12/04 06:05:49;;;;;;;1.10;0.95;;;;;;;;;;5063743;28;20119;-48
2021/12/04 06:08:15;;;;;;;2.10;0.73;;;;;;;;;;5064064;28;20028;-48
2021/12/04 06:10:42;;;;;;;1.05;0.90;;;;;;;;;;5063185;28;20098;-47
2021/12/04 06:13:10;;;;;;;1.02;0.77;;;;;;;;;;5064257;28;20027;-47
2021/12/04 06:15:36;;;;;;;0.80;0.60;;;;;;;;;;5064293;28;20052;-47
2021/12/04 06:18:03;;;;;;;1.23;1.05;;;;;;;;;;5064202;28;20036;-48
2021/12/04 06:23:16;;;;;;;1.42;0.90;;;;;;;;;;5063260;28;20411;-47
2021/12/04 06:25:43;;;;;;;1.08;0.90;;;;;;;;;;5063209;28;20506;-48
2021/12/04 06:28:10;;;;;;;1.45;1.00;;;;;;;;;;5064311;28;20047;-48
2021/12/04 06:30:38;;;;;;;2.05;1.40;;;;;;;;;;5064226;28;20557;-48
2021/12/04 06:33:05;;;;;;;0.90;0.70;;;;;;;;;;5064167;28;20052;-47
2021/12/04 06:35:32;;;;;;;0.88;0.70;;;;;;;;;;5063941;28;20032;-48
2021/12/04 06:37:58;;;;;;;0.85;0.80;;;;;;;;;;5064520;28;20074;-47
2021/12/04 06:40:27;;;;;;;1.33;0.80;;;;;;;;;;5063068;28;20032;-48
2021/12/04 06:42:57;;;;;;;1.48;1.08;;;;;;;;;;5064446;28;20021;-48
2021/12/04 06:45:24;;;;;;;1.70;1.20;;;;;;;;;;5062894;28;20060;-51
2021/12/04 06:47:57;;;;;;;2.38;1.50;;;;;;;;;;5064586;28;20028;-48
2021/12/04 06:53:25;;;;;;;2.28;1.23;;;;;;;;;;5062193;28;20070;-48
2021/12/04 06:55:53;;;;;;;1.42;1.08;;;;;;;;;;5064137;28;20032;-48
2021/12/04 06:58:20;;;;;;;2.95;1.13;;;;;;;;;;5066287;28;20411;-49
2021/12/04 07:00:47;;;;;;;2.20;1.10;;;;;;;;;;5067557;28;20108;-48
2021/12/04 07:03:14;;;;;;;2.08;1.13;;;;;;;;;;5067494;28;20402;-48
2021/12/04 07:05:41;;;;;;;3.53;1.30;;;;;;;;;;5067292;28;20039;-47
2021/12/04 07:08:07;;;;;;;1.90;1.25;;;;;;;;;;5066183;28;20029;-49
2021/12/04 07:10:33;;;;;;;1.23;1.00;;;;;;;;;;5067545;28;20506;-48
2021/12/04 07:13:00;;;;;;;0.95;0.82;;;;;;;;;;5066861;28;20094;-49
2021/12/04 07:15:30;;;;;;;2.13;0.93;;;;;;;;;;5067635;28;20056;-49
2021/12/04 07:17:57;;;;;;;1.30;0.88;;;;;;;;;;5067396;28;20056;-51
2021/12/04 07:20:23;;;;;;;1.73;1.08;;;;;;;;;;5067151;28;20028;-48
2021/12/04 07:22:49;;;;;;;1.50;1.00;;;;;;;;;;5066906;28;20696;-47
2021/12/04 07:25:15;;;;;;;1.95;0.90;;;;;;;;;;5067034;28;20029;-48
2021/12/04 07:27:41;;;;;;;1.45;1.20;;;;;;;;;;5066349;28;20522;-48
2021/12/04 07:30:08;;;;;;;1.30;1.00;;;;;;;;;;5065286;28;20036;-49
2021/12/04 07:32:35;;;;;;;1.25;0.98;;;;;;;;;;5067639;28;20024;-48
2021/12/04 07:35:02;;;;;;;1.83;1.17;;;;;;;;;;5062902;28;20054;-51
2021/12/04 07:37:28;;;;;;;1.13;0.85;;;;;;;;;;5067381;28;20361;-49
2021/12/04 07:39:55;;;;;;;1.10;1.00;;;;;;;;;;5067421;28;20381;-50
2021/12/04 07:42:21;;;;;;;2.45;1.30;;;;;;;;;;5066469;28;20067;-50
2021/12/04 07:44:47;;;;;;;1.63;1.30;;;;;;;;;;5066134;28;20225;-51
2021/12/04 07:47:14;;;;;;;1.30;1.00;;;;;;;;;;5066738;28;20403;-51
2021/12/04 07:49:41;;;;;;;2.45;1.20;;;;;;;;;;5067043;28;20017;-48
2021/12/04 07:52:07;;;;;;;1.58;1.17;;;;;;;;;;5066784;28;20040;-51
2021/12/04 07:54:33;;;;;;;3.17;1.45;;;;;;;;;;5066684;28;20063;-48
2021/12/04 07:56:59;;;;;;;3.45;1.52;;;;;;;;;;5067010;28;20028;-48
2021/12/04 07:59:26;;;;;;;1.90;1.30;;;;;;;;;;5065433;28;20284;-47
2021/12/04 08:01:53;;;;;;;1.40;1.30;;;;;;;;;;5065849;28;20093;-48
2021/12/04 08:04:20;;;;;;;5.57;1.60;;;;;;;;;;5067208;28;20086;-49
2021/12/04 08:06:47;;;;;;;4.60;1.90;;;;;;;;;;5060614;28;20104;-50
2021/12/04 08:09:14;;;;;;;3.33;2.45;;;;;;;;;;5066142;28;20161;-48
2021/12/04 08:11:40;;;;;;;2.72;1.52;;;;;;;;;;5066661;28;20491;-47
2021/12/04 08:14:06;;;;;;;3.75;2.35;;;;;;;;;;5064732;28;20029;-52
2021/12/04 08:16:32;;;;;;;2.47;1.60;;;;;;;;;;5063568;28;20029;-51
2021/12/04 08:18:58;;;;;;;4.22;2.13;;;;;;;;;;5064997;28;20032;-49
2021/12/04 08:21:25;;;;;;;2.80;2.05;;;;;;;;;;5066164;28;20243;-47
2021/12/04 08:23:52;;;;;;;5.05;3.38;;;;;;;;;;5067011;28;20131;-52
2021/12/04 08:26:18;;;;;;;4.78;3.08;;;;;;;;;;5067051;28;20028;-49
2021/12/04 08:28:44;;;;;;;4.15;2.60;;;;;;;;;;5066919;28;20166;-48
2021/12/04 08:31:11;;;;;;;3.40;2.55;;;;;;;;;;5067842;28;20040;-49
2021/12/04 08:33:37;;;;;;;2.78;1.80;;;;;;;;;;5075324;28;20556;-49
2021/12/04 08:36:04;;;;;;;1.95;1.42;;;;;;;;;;5067054;28;20021;-50
2021/12/04 08:38:31;;;;;;;2.70;1.50;;;;;;;;;;5067357;28;20023;-52
2021/12/04 08:40:57;;;;;;;1.45;1.25;;;;;;;;;;5066292;28;20441;-49
2021/12/04 08:43:23;;;;;;;1.75;1.10;;;;;;;;;;5062893;28;20033;-51
2021/12/04 08:45:49;;;;;;;1.70;1.33;;;;;;;;;;5066920;28;20037;-51
2021/12/04 08:48:15;;;;;;;3.45;1.95;;;;;;;;;;5054274;28;20115;-51
2021/12/04 08:50:41;;;;;;;2.83;1.75;;;;;;;;;;5047305;28;20025;-51
2021/12/04 08:53:08;;;;;;;3.45;1.80;;;;;;;;;;5049265;28;20029;-49
2021/12/04 08:55:36;;;;;;;3.78;1.77;;;;;;;;;;5065619;28;20032;-53
2021/12/04 08:58:02;;;;;;;3.22;1.80;;;;;;;;;;5067040;28;20606;-52
2021/12/04 09:00:33;;;;;;;2.70;1.77;;;;;;;;;;5065216;28;20032;-51
2021/12/04 09:03:00;;;;;;;5.18;3.03;;;;;;;;;;5065967;28;20032;-51
2021/12/04 09:05:26;;;;;;;5.32;3.13;;;;;;;;;;5065845;28;20449;-49
2021/12/04 09:07:53;;;;;;;6.25;3.17;;;;;;;;;;5066382;28;20086;-51
2021/12/04 09:10:20;;;;;;;5.68;3.40;;;;;;;;;;5065744;28;20047;-52
2021/12/04 09:12:47;;;;;;;4.50;1.75;;;;;;;;;;5066511;28;20056;-51
2021/12/04 09:15:14;;;;;;;3.70;2.45;;;;;;;;;;5067830;28;20032;-52
2021/12/04 09:17:41;;;;;;;3.15;2.10;;;;;;;;;;5066971;28;20517;-53
2021/12/04 09:20:09;;;;;;;3.08;1.60;;;;;;;;;;5065435;28;20032;-53
2021/12/04 09:22:37;;;;;;;3.65;1.75;;;;;;;;;;5065933;28;20403;-52
2021/12/04 09:25:05;;;;;;;3.60;1.90;;;;;;;;;;5067385;28;20028;-53
2021/12/04 09:27:39;;;;;;;8.18;5.05;;;;;;;;;;5080724;28;20036;-50
2021/12/04 11:38:20;;;;;;;2.42;1.30;;;;;;;;;;5069840;28;20039;-51
2021/12/04 11:40:54;;;;;;;2.28;1.40;;;;;;;;;;5070425;28;20021;-51
2021/12/04 11:43:23;;;;;;;2.00;1.48;;;;;;;;;;5068515;28;20111;-50
2021/12/04 11:48:37;;;;;;;2.40;1.40;;;;;;;;;;5065096;28;20067;-50
2021/12/04 11:51:04;;;;;;;3.25;2.03;;;;;;;;;;5068610;28;20040;-50
2021/12/04 11:53:34;;;;;;;4.10;2.65;;;;;;;;;;5068037;28;20035;-51
2021/12/04 11:56:00;;;;;;;3.47;2.30;;;;;;;;;;5067415;28;20090;-51
2021/12/04 11:58:31;;;;;;;4.97;2.22;;;;;;;;;;5050578;28;20566;-51
2021/12/04 12:01:03;;;;;;;2.45;1.60;;;;;;;;;;5067512;28;20025;-49
2021/12/04 12:03:31;;;;;;;2.50;1.80;;;;;;;;;;5070490;28;20029;-52
2021/12/04 12:05:59;;;;;;;2.90;2.05;;;;;;;;;;5070233;28;20056;-51
2021/12/04 12:08:30;;;;;;;5.80;2.42;;;;;;;;;;5070727;28;20036;-47
2021/12/04 12:11:00;;;;;;;2.72;1.85;;;;;;;;;;5071276;28;20035;-49
2021/12/04 12:13:35;;;;;;;2.70;1.67;;;;;;;;;;5069260;28;20020;-50
2021/12/04 12:16:05;;;;;;;2.83;1.85;;;;;;;;;;5067606;28;20029;-48
2021/12/04 12:18:42;;;;;;;3.25;1.80;;;;;;;;;;5057537;28;20017;-48
2021/12/04 12:21:09;;;;;;;2.88;1.88;;;;;;;;;;5070399;28;20103;-48
2021/12/04 12:23:40;;;;;;;3.33;1.70;;;;;;;;;;5050292;28;20380;-50
2021/12/04 12:26:15;;;;;;;2.88;1.65;;;;;;;;;;5067851;28;20039;-51
2021/12/04 12:37:15;;;;;;;2.42;1.60;;;;;;;;;;5056241;28;20033;-48
2021/12/04 12:39:55;;;;;;;1.65;1.40;;;;;;;;;;5064373;28;20487;-51
2021/12/04 12:42:30;;;;;;;1.67;1.35;;;;;;;;;;5083813;28;20039;-49
2021/12/04 12:45:14;;;;;;;2.25;1.48;;;;;;;;;;5088511;28;20035;-50
2021/12/04 12:48:00;;;;;;;2.30;1.73;;;;;;;;;;5051672;28;20032;-52
2021/12/04 12:50:33;;;;;;;2.60;1.77;;;;;;;;;;5069309;28;20066;-53
2021/12/04 12:53:04;;;;;;;2.67;1.63;;;;;;;;;;5070009;28;20021;-49
2021/12/04 12:55:35;;;;;;;3.28;1.98;;;;;;;;;;5068843;28;20039;-51
2021/12/04 12:58:20;;;;;;;1.75;1.52;;;;;;;;;;5066182;28;20056;-49
2021/12/04 13:11:55;;;;;;;2.40;1.45;;;;;;;;;;5042166;28;20047;-49
2021/12/04 13:14:23;;;;;;;3.03;1.90;;;;;;;;;;5063888;28;20701;-48
2021/12/04 13:16:57;;;;;;;6.35;3.58;;;;;;;;;;5073917;28;20491;-47
2021/12/04 13:19:25;;;;;;;8.80;4.82;;;;;;;;;;5073110;28;20036;-47
2021/12/04 13:21:52;;;;;;;18.00;10.25;;;;;;;;;;5070657;28;20483;-48
2021/12/04 13:24:19;;;;;;;17.92;10.27;;;;;;;;;;5068856;28;20107;-48
2021/12/04 13:26:47;;;;;;;12.75;7.95;;;;;;;;;;5065601;28;20044;-50
2021/12/04 13:29:15;;;;;;;8.63;5.07;;;;;;;;;;5072429;28;20054;-47
2021/12/04 13:31:41;;;;;;;7.22;3.67;;;;;;;;;;5065006;28;20739;-48
2021/12/04 13:34:09;;;;;;;5.68;3.47;;;;;;;;;;5075269;28;20479;-47
2021/12/04 13:36:38;;;;;;;4.38;3.17;;;;;;;;;;5089553;28;20023;-47
2021/12/04 13:39:09;;;;;;;5.38;3.72;;;;;;;;;;5075466;28;20061;-47
2021/12/04 13:41:35;;;;;;;9.35;5.38;;;;;;;;;;5068992;28;20510;-49
2021/12/04 13:44:04;;;;;;;10.68;6.35;;;;;;;;;;5069093;28;20107;-47
2021/12/04 13:46:38;;;;;;;7.28;4.50;;;;;;;;;;5065236;28;20032;-47
2021/12/04 13:49:04;;;;;;;8.27;4.20;;;;;;;;;;5067577;28;20030;-49
2021/12/04 13:51:30;;;;;;;7.03;3.42;;;;;;;;;;5068758;28;20032;-49
2021/12/04 13:53:56;;;;;;;7.43;3.70;;;;;;;;;;5067735;28;20033;-52
2021/12/04 13:56:23;;;;;;;6.07;3.42;;;;;;;;;;5068946;28;20028;-49
2021/12/04 13:58:56;;;;;;;5.22;2.70;;;;;;;;;;5079541;28;20394;-51
2021/12/04 14:01:23;;;;;;;7.18;3.10;;;;;;;;;;5089302;28;20059;-50
2021/12/04 14:03:49;;;;;;;4.82;2.67;;;;;;;;;;5083059;28;20116;-50
2021/12/04 14:06:16;;;;;;;4.20;2.60;;;;;;;;;;5067678;28;20035;-48
2021/12/04 14:08:43;;;;;;;5.43;2.55;;;;;;;;;;5068668;28;20028;-48
2021/12/04 14:11:09;;;;;;;6.07;3.13;;;;;;;;;;5068647;28;20107;-49
2021/12/04 14:13:37;;;;;;;4.97;2.88;;;;;;;;;;5068661;28;20036;-49
2021/12/04 14:16:05;;;;;;;4.60;2.80;;;;;;;;;;5061659;28;20500;-49
2021/12/04 14:18:33;;;;;;;4.40;2.65;;;;;;;;;;5068615;28;20016;-47
2021/12/04 14:21:00;;;;;;;3.03;2.45;;;;;;;;;;5068926;28;20026;-48
2021/12/04 14:23:28;;;;;;;2.95;2.00;;;;;;;;;;5068570;28;20028;-52
2021/12/04 14:25:54;;;;;;;2.95;1.98;;;;;;;;;;5068902;28;20032;-48
2021/12/04 14:28:22;;;;;;;3.33;2.45;;;;;;;;;;5068339;28;20032;-47
2021/12/04 14:30:48;;;;;;;4.32;2.60;;;;;;;;;;5068688;28;20031;-48
2021/12/04 14:33:18;;;;;;;4.97;2.83;;;;;;;;;;5068344;28;20035;-48
2021/12/04 14:35:45;;;;;;;3.67;2.22;;;;;;;;;;5068201;28;20032;-47
2021/12/04 14:38:14;;;;;;;2.97;2.08;;;;;;;;;;5068264;28;20032;-52
2021/12/04 14:40:41;;;;;;;3.47;2.30;;;;;;;;;;5065946;28;20087;-49
2021/12/04 14:43:10;;;;;;;5.75;2.72;;;;;;;;;;5064069;28;20035;-51
2021/12/04 14:45:37;;;;;;;3.90;2.63;;;;;;;;;;5066274;28;20052;-51
2021/12/04 14:48:05;;;;;;;3.53;2.33;;;;;;;;;;5067291;28;20064;-49
2021/12/04 14:50:32;;;;;;;2.45;1.75;;;;;;;;;;5066643;28;20032;-52
2021/12/04 14:53:00;;;;;;;3.97;2.42;;;;;;;;;;5067634;28;20028;-50
2021/12/04 14:55:26;;;;;;;2.22;1.70;;;;;;;;;;5065304;28;20052;-49
2021/12/04 14:57:53;;;;;;;2.50;2.05;;;;;;;;;;5058536;28;20032;-48
2021/12/04 15:00:24;;;;;;;7.88;4.22;;;;;;;;;;5081955;28;20028;-51
2021/12/04 15:02:55;;;;;;;6.18;3.80;;;;;;;;;;5068373;28;20024;-51
2021/12/04 15:05:27;;;;;;;8.07;4.10;;;;;;;;;;5067228;28;20028;-49
2021/12/04 15:08:11;;;;;;;4.32;2.83;;;;;;;;;;5066872;28;20093;-50
2021/12/04 15:10:37;;;;;;;6.00;3.25;;;;;;;;;;5066072;28;20039;-49
2021/12/04 15:13:05;;;;;;;3.47;2.13;;;;;;;;;;5075226;28;20093;-51
2021/12/04 15:15:34;;;;;;;3.55;2.28;;;;;;;;;;5068531;28;20052;-50
2021/12/04 15:18:02;;;;;;;3.78;2.20;;;;;;;;;;5062744;28;20028;-51
2021/12/04 15:20:31;;;;;;;3.55;2.22;;;;;;;;;;5075326;28;20107;-52
2021/12/04 15:22:58;;;;;;;3.42;2.03;;;;;;;;;;5064545;28;20491;-52
2021/12/04 15:25:28;;;;;;;4.10;2.10;;;;;;;;;;5064631;28;20656;-50
2021/12/04 15:27:54;;;;;;;3.78;2.40;;;;;;;;;;5068271;28;20127;-49
2021/12/04 15:30:21;;;;;;;5.30;2.80;;;;;;;;;;5068238;28;20047;-49
2021/12/04 15:32:47;;;;;;;5.47;3.72;;;;;;;;;;5070394;28;20032;-49
2021/12/04 15:35:28;;;;;;;6.53;3.47;;;;;;;;;;5068551;28;20025;-51
2021/12/04 15:38:11;;;;;;;6.55;3.70;;;;;;;;;;5069662;28;20111;-50
2021/12/04 15:40:46;;;;;;;5.53;3.47;;;;;;;;;;5065899;28;20036;-49
2021/12/04 15:43:21;;;;;;;7.95;4.75;;;;;;;;;;5070133;28;20024;-49
2021/12/04 15:46:20;;;;;;;9.48;5.22;;;;;;;;;;5068933;28;20051;-49
2021/12/04 15:54:04;;;;;;;7.88;5.22;;;;;;;;;;5068657;28;20138;-48
2021/12/04 15:56:36;;;;;;;9.18;4.88;;;;;;;;;;5066084;28;20017;-48
2021/12/04 15:59:02;;;;;;;8.90;5.30;;;;;;;;;;5073266;28;20098;-50
2021/12/04 16:01:29;;;;;;;6.32;4.18;;;;;;;;;;5067879;28;20028;-50
2021/12/04 16:03:55;;;;;;;6.38;3.65;;;;;;;;;;5070702;28;20039;-50
2021/12/04 16:06:21;;;;;;;6.82;3.40;;;;;;;;;;5067895;28;20556;-47
2021/12/04 16:08:48;;;;;;;6.05;3.75;;;;;;;;;;5069093;28;20507;-47
2021/12/04 16:11:15;;;;;;;5.15;2.83;;;;;;;;;;5077682;28;20097;-49
2021/12/04 16:13:47;;;;;;;4.18;2.70;;;;;;;;;;5069328;28;20031;-47
2021/12/04 16:16:16;;;;;;;3.08;2.20;;;;;;;;;;5068528;28;20048;-49
2021/12/04 16:18:43;;;;;;;3.00;2.00;;;;;;;;;;5067391;28;20544;-48
2021/12/04 16:21:09;;;;;;;4.55;2.55;;;;;;;;;;5069330;28;20418;-47
2021/12/04 16:23:36;;;;;;;3.53;2.20;;;;;;;;;;5068126;28;20415;-51
2021/12/04 16:26:03;;;;;;;4.00;2.47;;;;;;;;;;5061152;28;20033;-50
2021/12/04 16:38:30;;;;;;;4.10;2.50;;;;;;;;;;5069907;28;20403;-51
2021/12/04 16:40:58;;;;;;;9.65;6.25;;;;;;;;;;5069952;28;20116;-49
2021/12/04 16:43:36;;;;;;;11.15;6.72;;;;;;;;;;5070412;28;20032;-51
2021/12/04 16:46:09;;;;;;;8.48;4.93;;;;;;;;;;5070001;28;20097;-52
2021/12/04 16:48:39;;;;;;;5.95;3.50;;;;;;;;;;5068437;28;20028;-49
2021/12/04 16:59:20;;;;;;;2.80;2.20;;;;;;;;;;5040666;28;20422;-51
2021/12/04 17:01:48;;;;;;;3.08;2.38;;;;;;;;;;5069455;28;20113;-52
2021/12/04 17:04:16;;;;;;;3.65;2.50;;;;;;;;;;5065341;28;20032;-51
2021/12/04 17:06:43;;;;;;;4.60;2.42;;;;;;;;;;5067846;28;20031;-50
2021/12/04 17:09:10;;;;;;;5.25;2.10;;;;;;;;;;5068014;28;20051;-51
2021/12/04 17:11:38;;;;;;;5.40;2.25;;;;;;;;;;5067343;28;20024;-50
2021/12/04 17:14:04;;;;;;;4.60;1.77;;;;;;;;;;5067973;28;20043;-52
2021/12/04 17:16:30;;;;;;;3.55;1.77;;;;;;;;;;5067651;28;20516;-50
2021/12/04 17:19:19;;;;;;;2.78;1.20;;;;;;;;;;5064526;28;20024;-50
2021/12/04 17:21:46;;;;;;;1.90;1.00;;;;;;;;;;5068081;28;20032;-51
2021/12/04 17:24:14;;;;;;;1.20;0.80;;;;;;;;;;5068424;28;20558;-51
2021/12/04 17:26:42;;;;;;;2.60;1.30;;;;;;;;;;5067911;28;20107;-49
2021/12/04 17:29:11;;;;;;;2.03;1.35;;;;;;;;;;5066059;28;20032;-50
2021/12/04 17:31:37;;;;;;;2.00;1.38;;;;;;;;;;5066322;28;20267;-51
2021/12/04 17:34:05;;;;;;;1.58;1.20;;;;;;;;;;5064336;28;20028;-51
2021/12/04 17:36:32;;;;;;;1.00;0.82;;;;;;;;;;5066635;28;20028;-49
2021/12/04 17:38:58;;;;;;;1.60;0.90;;;;;;;;;;5064396;28;20041;-48
2021/12/04 17:41:30;;;;;;;0.88;0.60;;;;;;;;;;5062396;28;20103;-52
2021/12/04 17:43:56;;;;;;;0.98;0.60;;;;;;;;;;5062383;28;20032;-50
2021/12/04 17:46:23;;;;;;;0.50;0.50;;;;;;;;;;5066646;28;20020;-51
2021/12/04 17:48:50;;;;;;;1.25;0.73;;;;;;;;;;5066692;28;20028;-51
2021/12/04 17:51:20;;;;;;;1.05;0.90;;;;;;;;;;5066020;28;20040;-51
2021/12/04 17:53:46;;;;;;;2.10;0.70;;;;;;;;;;5065663;28;20410;-49
2021/12/04 17:56:12;;;;;;;3.75;1.88;;;;;;;;;;5065438;28;20024;-50
2021/12/04 17:58:39;;;;;;;1.90;1.20;;;;;;;;;;5057762;28;20029;-50
2021/12/04 18:01:11;;;;;;;2.55;1.70;;;;;;;;;;5059418;28;20032;-51
2021/12/04 18:03:38;;;;;;;2.58;1.45;;;;;;;;;;5068734;28;20068;-50
2021/12/04 18:06:07;;;;;;;3.72;1.60;;;;;;;;;;5065838;28;20063;-52
2021/12/04 18:08:34;;;;;;;5.30;1.95;;;;;;;;;;5084755;28;20036;-48
2021/12/04 18:11:01;;;;;;;2.92;1.70;;;;;;;;;;5063140;28;20043;-48
2021/12/04 18:13:29;;;;;;;6.03;2.50;;;;;;;;;;5063136;28;20066;-48
2021/12/04 18:16:01;;;;;;;2.72;1.70;;;;;;;;;;5063633;28;20025;-48
2021/12/04 18:18:30;;;;;;;5.72;2.13;;;;;;;;;;5041570;28;20119;-47
2021/12/04 18:20:58;;;;;;;5.03;2.17;;;;;;;;;;5060975;28;20025;-48
2021/12/04 18:23:25;;;;;;;4.05;1.88;;;;;;;;;;5063327;28;20051;-47
2021/12/04 18:25:52;;;;;;;4.47;2.25;;;;;;;;;;5064080;28;20075;-49
2021/12/04 18:28:19;;;;;;;6.55;2.78;;;;;;;;;;5063320;28;20123;-47
2021/12/04 18:30:50;;;;;;;3.53;2.10;;;;;;;;;;5063588;28;20062;-47
2021/12/04 18:33:17;;;;;;;5.13;2.10;;;;;;;;;;5062866;28;20028;-50
2021/12/04 18:35:43;;;;;;;6.07;2.50;;;;;;;;;;5062601;28;20028;-48
2021/12/04 18:38:09;;;;;;;7.30;2.10;;;;;;;;;;5061814;28;20032;-54
2021/12/04 18:40:37;;;;;;;6.00;2.00;;;;;;;;;;5063694;28;20491;-48
2021/12/04 18:43:05;;;;;;;4.35;1.92;;;;;;;;;;5062648;28;20443;-48
2021/12/04 18:45:31;;;;;;;3.83;1.80;;;;;;;;;;5058582;28;20025;-51
2021/12/04 18:47:59;;;;;;;3.03;1.20;;;;;;;;;;5046074;28;20044;-47
2021/12/04 18:50:27;;;;;;;3.78;1.58;;;;;;;;;;5064628;28;20547;-51
2021/12/04 18:52:54;;;;;;;2.70;1.27;;;;;;;;;;5065182;28;20075;-48